sensor_id;sensor_type;location;lat;lon;timestamp;pressure;altitude;pressure_sealevel;temperature;humidity
31357;BME280;60001;48.404;11.738;2023-05-25T00:00:48;96592.84;;;13.90;52.66
31357;BME280;60001;48.404;11.738;2023-05-25T00:02:20;96591.00;;;14.01;52.25
31357;BME280;60001;48.404;11.738;2023-05-25T00:03:53;96575.31;;;13.89;52.22
31357;BME280;60001;48.404;11.738;2023-05-25T00:05:27;96577.69;;;13.90;52.45
31357;BME280;60001;48.404;11.738;2023-05-25T00:06:58;96579.31;;;14.07;51.84
31357;BME280;60001;48.404;11.738;2023-05-25T00:08:31;96578.75;;;14.10;51.99
31357;BME280;60001;48.404;11.738;2023-05-25T00:10:04;96584.34;;;14.08;52.31
31357;BME280;60001;48.404;11.738;2023-05-25T00:11:36;96580.09;;;14.07;52.37
31357;BME280;60001;48.404;11.738;2023-05-25T00:13:06;96582.50;;;13.98;52.73
31357;BME280;60001;48.404;11.738;2023-05-25T00:14:41;96593.09;;;13.68;53.69
31357;BME280;60001;48.404;11.738;2023-05-25T00:16:12;96592.06;;;13.84;53.62
31357;BME280;60001;48.404;11.738;2023-05-25T00:17:43;96590.19;;;13.85;53.63
31357;BME280;60001;48.404;11.738;2023-05-25T00:19:18;96597.34;;;13.89;53.20
31357;BME280;60001;48.404;11.738;2023-05-25T00:20:51;96599.50;;;13.92;53.60
31357;BME280;60001;48.404;11.738;2023-05-25T00:22:23;96600.28;;;13.93;53.49
31357;BME280;60001;48.404;11.738;2023-05-25T00:23:58;96602.94;;;13.98;53.18
31357;BME280;60001;48.404;11.738;2023-05-25T00:25:30;96597.88;;;14.02;53.86
31357;BME280;60001;48.404;11.738;2023-05-25T00:27:01;96602.16;;;13.92;53.82
31357;BME280;60001;48.404;11.738;2023-05-25T00:28:33;96599.50;;;13.92;53.98
31357;BME280;60001;48.404;11.738;2023-05-25T00:30:06;96596.31;;;14.01;53.49
31357;BME280;60001;48.404;11.738;2023-05-25T00:31:38;96593.66;;;14.06;53.66
31357;BME280;60001;48.404;11.738;2023-05-25T00:33:09;96589.41;;;13.94;54.04
31357;BME280;60001;48.404;11.738;2023-05-25T00:34:41;96592.59;;;13.91;54.93
31357;BME280;60001;48.404;11.738;2023-05-25T00:36:13;96596.03;;;13.97;54.71
31357;BME280;60001;48.404;11.738;2023-05-25T00:37:45;96597.09;;;14.01;54.08
31357;BME280;60001;48.404;11.738;2023-05-25T00:39:18;96595.22;;;13.96;54.22
31357;BME280;60001;48.404;11.738;2023-05-25T00:40:54;96585.44;;;13.92;54.67
31357;BME280;60001;48.404;11.738;2023-05-25T00:42:26;96598.69;;;13.87;55.60
31357;BME280;60001;48.404;11.738;2023-05-25T00:43:58;96598.16;;;13.95;54.56
31357;BME280;60001;48.404;11.738;2023-05-25T00:45:29;96588.59;;;13.94;54.94
31357;BME280;60001;48.404;11.738;2023-05-25T00:47:01;96592.06;;;13.94;54.73
31357;BME280;60001;48.404;11.738;2023-05-25T00:48:32;96600.00;;;13.94;55.03
31357;BME280;60001;48.404;11.738;2023-05-25T00:50:08;96599.47;;;13.87;55.21
31357;BME280;60001;48.404;11.738;2023-05-25T00:51:42;96600.28;;;13.93;55.22
31357;BME280;60001;48.404;11.738;2023-05-25T00:53:15;96597.09;;;13.96;54.97
31357;BME280;60001;48.404;11.738;2023-05-25T00:54:50;96601.59;;;13.95;55.21
31357;BME280;60001;48.404;11.738;2023-05-25T00:56:29;96604.78;;;13.97;55.33
31357;BME280;60001;48.404;11.738;2023-05-25T00:58:03;96603.75;;;13.98;55.44
31357;BME280;60001;48.404;11.738;2023-05-25T00:59:39;96607.72;;;13.91;55.82
31357;BME280;60001;48.404;11.738;2023-05-25T01:01:14;96605.84;;;13.96;55.75
31357;BME280;60001;48.404;11.738;2023-05-25T01:02:49;96598.16;;;13.85;55.84
31357;BME280;60001;48.404;11.738;2023-05-25T01:04:27;96588.59;;;13.94;55.18
31357;BME280;60001;48.404;11.738;2023-05-25T01:06:01;96595.25;;;14.02;55.47
31357;BME280;60001;48.404;11.738;2023-05-25T01:07:38;96591.78;;;13.96;55.72
31357;BME280;60001;48.404;11.738;2023-05-25T01:09:16;96590.97;;;13.95;56.15
31357;BME280;60001;48.404;11.738;2023-05-25T01:10:51;96590.72;;;14.02;55.81
31357;BME280;60001;48.404;11.738;2023-05-25T01:12:26;96593.38;;;13.92;56.29
31357;BME280;60001;48.404;11.738;2023-05-25T01:13:59;96581.97;;;13.91;56.22
31357;BME280;60001;48.404;11.738;2023-05-25T01:15:32;96586.19;;;13.97;56.00
31357;BME280;60001;48.404;11.738;2023-05-25T01:17:04;96580.88;;;13.97;55.75
31357;BME280;60001;48.404;11.738;2023-05-25T01:18:37;96580.88;;;13.97;56.26
31357;BME280;60001;48.404;11.738;2023-05-25T01:20:11;96584.09;;;13.99;55.72
31357;BME280;60001;48.404;11.738;2023-05-25T01:21:46;96580.88;;;13.97;56.08
31357;BME280;60001;48.404;11.738;2023-05-25T01:23:29;96581.16;;;13.96;56.41
31357;BME280;60001;48.404;11.738;2023-05-25T01:25:08;96582.22;;;14.00;56.48
31357;BME280;60001;48.404;11.738;2023-05-25T01:26:47;96583.03;;;13.95;56.80
31357;BME280;60001;48.404;11.738;2023-05-25T01:28:24;96584.59;;;13.96;56.64
31357;BME280;60001;48.404;11.738;2023-05-25T01:30:01;96584.59;;;13.96;56.89
31357;BME280;60001;48.404;11.738;2023-05-25T01:31:34;96579.31;;;13.96;56.91
31357;BME280;60001;48.404;11.738;2023-05-25T01:33:08;96580.09;;;13.97;57.02
31357;BME280;60001;48.404;11.738;2023-05-25T01:34:42;96580.09;;;13.97;57.38
31357;BME280;60001;48.404;11.738;2023-05-25T01:36:13;96587.00;;;14.03;57.14
31357;BME280;60001;48.404;11.738;2023-05-25T01:37:48;96587.53;;;13.95;57.62
31357;BME280;60001;48.404;11.738;2023-05-25T01:39:22;96583.03;;;14.01;57.45
31357;BME280;60001;48.404;11.738;2023-05-25T01:40:53;96579.06;;;13.93;57.96
31357;BME280;60001;48.404;11.738;2023-05-25T01:42:25;96584.09;;;14.05;58.54
31357;BME280;60001;48.404;11.738;2023-05-25T01:43:56;96576.13;;;13.94;58.58
31357;BME280;60001;48.404;11.738;2023-05-25T01:45:28;96576.41;;;13.98;58.82
31357;BME280;60001;48.404;11.738;2023-05-25T01:47:07;96588.84;;;14.03;58.91
31357;BME280;60001;48.404;11.738;2023-05-25T01:48:52;96585.69;;;14.01;59.54
31357;BME280;60001;48.404;11.738;2023-05-25T01:50:35;96589.41;;;13.94;59.75
31357;BME280;60001;48.404;11.738;2023-05-25T01:52:17;96591.50;;;14.03;60.05
31357;BME280;60001;48.404;11.738;2023-05-25T01:53:55;96597.88;;;13.96;60.40
31357;BME280;60001;48.404;11.738;2023-05-25T01:55:33;96604.78;;;14.03;60.09
31357;BME280;60001;48.404;11.738;2023-05-25T01:57:12;96596.84;;;14.13;59.70
31357;BME280;60001;48.404;11.738;2023-05-25T01:58:49;96607.19;;;14.14;60.19
31357;BME280;60001;48.404;11.738;2023-05-25T02:00:21;96610.09;;;13.97;60.76
31357;BME280;60001;48.404;11.738;2023-05-25T02:01:54;96608.78;;;14.05;60.25
31357;BME280;60001;48.404;11.738;2023-05-25T02:03:26;96599.50;;;14.08;60.59
31357;BME280;60001;48.404;11.738;2023-05-25T02:04:58;96593.38;;;13.97;60.98
31357;BME280;60001;48.404;11.738;2023-05-25T02:06:30;96605.06;;;14.06;61.12
31357;BME280;60001;48.404;11.738;2023-05-25T02:08:01;96602.94;;;14.03;61.54
31357;BME280;60001;48.404;11.738;2023-05-25T02:09:34;96600.56;;;14.07;61.06
31357;BME280;60001;48.404;11.738;2023-05-25T02:11:05;96602.69;;;13.99;61.76
31357;BME280;60001;48.404;11.738;2023-05-25T02:12:36;96597.38;;;13.99;61.95
31357;BME280;60001;48.404;11.738;2023-05-25T02:14:08;96593.66;;;14.01;61.61
31357;BME280;60001;48.404;11.738;2023-05-25T02:15:40;96594.16;;;14.03;62.32
31357;BME280;60001;48.404;11.738;2023-05-25T02:17:12;96594.16;;;13.97;62.15
31357;BME280;60001;48.404;11.738;2023-05-25T02:18:43;96595.50;;;14.05;62.14
31357;BME280;60001;48.404;11.738;2023-05-25T02:20:15;96596.84;;;14.08;61.92
31357;BME280;60001;48.404;11.738;2023-05-25T02:21:46;96597.88;;;14.02;62.51
31357;BME280;60001;48.404;11.738;2023-05-25T02:23:18;96600.03;;;14.05;62.72
31357;BME280;60001;48.404;11.738;2023-05-25T02:24:50;96598.69;;;14.02;63.15
31357;BME280;60001;48.404;11.738;2023-05-25T02:26:22;96592.84;;;14.00;63.12
31357;BME280;60001;48.404;11.738;2023-05-25T02:27:53;96592.31;;;14.03;63.47
31357;BME280;60001;48.404;11.738;2023-05-25T02:29:24;96583.03;;;14.06;63.52
31357;BME280;60001;48.404;11.738;2023-05-25T02:30:56;96580.91;;;14.08;63.79
31357;BME280;60001;48.404;11.738;2023-05-25T02:32:28;96589.41;;;13.99;64.05
31357;BME280;60001;48.404;11.738;2023-05-25T02:33:59;96587.81;;;13.93;64.40
31357;BME280;60001;48.404;11.738;2023-05-25T02:35:31;96589.91;;;13.96;64.24
31357;BME280;60001;48.404;11.738;2023-05-25T02:37:01;96586.47;;;13.96;64.50
31357;BME280;60001;48.404;11.738;2023-05-25T02:38:36;96580.38;;;14.01;64.51
31357;BME280;60001;48.404;11.738;2023-05-25T02:40:10;96580.09;;;14.02;64.24
31357;BME280;60001;48.404;11.738;2023-05-25T02:41:42;96578.25;;;14.03;64.44
31357;BME280;60001;48.404;11.738;2023-05-25T02:43:13;96578.53;;;14.06;64.46
31357;BME280;60001;48.404;11.738;2023-05-25T02:44:45;96569.47;;;14.02;64.82
31357;BME280;60001;48.404;11.738;2023-05-25T02:46:17;96578.50;;;13.96;65.29
31357;BME280;60001;48.404;11.738;2023-05-25T02:47:49;96573.47;;;14.05;64.86
31357;BME280;60001;48.404;11.738;2023-05-25T02:49:21;96576.13;;;14.05;65.05
31357;BME280;60001;48.404;11.738;2023-05-25T02:50:53;96574.78;;;14.07;64.97
31357;BME280;60001;48.404;11.738;2023-05-25T02:52:24;96585.41;;;14.07;65.04
31357;BME280;60001;48.404;11.738;2023-05-25T02:53:55;96587.53;;;14.00;66.10
31357;BME280;60001;48.404;11.738;2023-05-25T02:55:27;96582.75;;;14.02;65.62
31357;BME280;60001;48.404;11.738;2023-05-25T02:56:59;96585.69;;;14.06;66.26
31357;BME280;60001;48.404;11.738;2023-05-25T02:58:32;96584.63;;;14.07;65.91
31357;BME280;60001;48.404;11.738;2023-05-25T03:00:04;96579.84;;;14.09;66.06
31357;BME280;60001;48.404;11.738;2023-05-25T03:01:36;96576.94;;;14.05;66.33
31357;BME280;60001;48.404;11.738;2023-05-25T03:03:09;96579.81;;;14.04;66.51
31357;BME280;60001;48.404;11.738;2023-05-25T03:04:40;96583.03;;;14.06;66.56
31357;BME280;60001;48.404;11.738;2023-05-25T03:06:13;96585.41;;;14.07;66.58
31357;BME280;60001;48.404;11.738;2023-05-25T03:07:45;96586.47;;;14.11;67.08
31357;BME280;60001;48.404;11.738;2023-05-25T03:09:17;96594.19;;;14.08;67.07
31357;BME280;60001;48.404;11.738;2023-05-25T03:10:50;96579.03;;;14.08;67.56
31357;BME280;60001;48.404;11.738;2023-05-25T03:12:21;96573.47;;;13.99;67.27
31357;BME280;60001;48.404;11.738;2023-05-25T03:13:52;96589.38;;;14.10;67.43
31357;BME280;60001;48.404;11.738;2023-05-25T03:15:24;96592.59;;;14.07;67.91
31357;BME280;60001;48.404;11.738;2023-05-25T03:16:56;96591.25;;;14.09;67.75
31357;BME280;60001;48.404;11.738;2023-05-25T03:18:28;96592.31;;;14.13;67.64
31357;BME280;60001;48.404;11.738;2023-05-25T03:19:59;96594.44;;;14.11;68.00
31357;BME280;60001;48.404;11.738;2023-05-25T03:21:30;96590.22;;;14.05;68.21
31357;BME280;60001;48.404;11.738;2023-05-25T03:23:01;96588.06;;;14.07;67.93
31357;BME280;60001;48.404;11.738;2023-05-25T03:24:33;96583.03;;;14.06;68.46
31357;BME280;60001;48.404;11.738;2023-05-25T03:26:06;96588.88;;;14.13;67.68
31357;BME280;60001;48.404;11.738;2023-05-25T03:27:38;96581.97;;;14.12;68.36
31357;BME280;60001;48.404;11.738;2023-05-25T03:29:09;96586.47;;;14.11;68.33
31357;BME280;60001;48.404;11.738;2023-05-25T03:30:41;96595.78;;;14.14;68.48
31357;BME280;60001;48.404;11.738;2023-05-25T03:32:13;96597.63;;;14.13;68.52
31357;BME280;60001;48.404;11.738;2023-05-25T03:33:45;96597.34;;;14.15;69.09
31357;BME280;60001;48.404;11.738;2023-05-25T03:35:17;96599.50;;;14.13;69.07
31357;BME280;60001;48.404;11.738;2023-05-25T03:36:49;96601.06;;;14.09;69.92
31357;BME280;60001;48.404;11.738;2023-05-25T03:38:22;96597.88;;;14.17;69.60
31357;BME280;60001;48.404;11.738;2023-05-25T03:39:53;96593.09;;;14.24;68.87
31357;BME280;60001;48.404;11.738;2023-05-25T03:41:26;96591.50;;;14.18;69.89
31357;BME280;60001;48.404;11.738;2023-05-25T03:42:58;96591.50;;;14.18;70.03
31357;BME280;60001;48.404;11.738;2023-05-25T03:44:30;96592.31;;;14.13;70.00
31357;BME280;60001;48.404;11.738;2023-05-25T03:46:00;96590.47;;;14.19;70.01
31357;BME280;60001;48.404;11.738;2023-05-25T03:47:32;96592.59;;;14.07;71.39
31357;BME280;60001;48.404;11.738;2023-05-25T03:49:04;96583.28;;;14.04;71.32
31357;BME280;60001;48.404;11.738;2023-05-25T03:50:35;96584.09;;;13.99;71.47
31357;BME280;60001;48.404;11.738;2023-05-25T03:52:06;96588.34;;;14.06;71.80
31357;BME280;60001;48.404;11.738;2023-05-25T03:53:37;96586.47;;;14.01;72.57
31357;BME280;60001;48.404;11.738;2023-05-25T03:55:09;96591.25;;;14.09;71.79
31357;BME280;60001;48.404;11.738;2023-05-25T03:56:42;96587.53;;;14.10;72.22
31357;BME280;60001;48.404;11.738;2023-05-25T03:58:14;96599.50;;;14.08;72.19
31357;BME280;60001;48.404;11.738;2023-05-25T03:59:47;96598.16;;;14.05;72.88
31357;BME280;60001;48.404;11.738;2023-05-25T04:01:19;96599.22;;;14.09;72.75
31357;BME280;60001;48.404;11.738;2023-05-25T04:02:51;96598.16;;;14.15;72.40
31357;BME280;60001;48.404;11.738;2023-05-25T04:04:23;96602.41;;;14.16;72.39
31357;BME280;60001;48.404;11.738;2023-05-25T04:05:55;96602.13;;;14.18;72.38
31357;BME280;60001;48.404;11.738;2023-05-25T04:07:29;96603.47;;;14.15;72.36
31357;BME280;60001;48.404;11.738;2023-05-25T04:09:01;96602.13;;;14.18;72.30
31357;BME280;60001;48.404;11.738;2023-05-25T04:10:33;96597.34;;;14.25;71.93
31357;BME280;60001;48.404;11.738;2023-05-25T04:12:07;96592.56;;;14.22;72.12
31357;BME280;60001;48.404;11.738;2023-05-25T04:13:39;96599.75;;;14.26;71.86
31357;BME280;60001;48.404;11.738;2023-05-25T04:15:11;96605.84;;;14.27;71.62
31357;BME280;60001;48.404;11.738;2023-05-25T04:16:43;96602.38;;;14.32;71.70
31357;BME280;60001;48.404;11.738;2023-05-25T04:18:15;96598.41;;;14.29;71.92
31357;BME280;60001;48.404;11.738;2023-05-25T04:19:47;96600.53;;;14.27;71.97
31357;BME280;60001;48.404;11.738;2023-05-25T04:21:18;96603.19;;;14.22;72.12
31357;BME280;60001;48.404;11.738;2023-05-25T04:22:50;96611.19;;;14.12;72.73
31357;BME280;60001;48.404;11.738;2023-05-25T04:24:22;96601.34;;;14.17;72.58
31357;BME280;60001;48.404;11.738;2023-05-25T04:25:54;96612.22;;;14.21;72.92
31357;BME280;60001;48.404;11.738;2023-05-25T04:27:26;96599.19;;;14.30;72.19
31357;BME280;60001;48.404;11.738;2023-05-25T04:28:58;96600.78;;;14.31;72.21
31357;BME280;60001;48.404;11.738;2023-05-25T04:30:31;96609.28;;;14.38;72.16
31357;BME280;60001;48.404;11.738;2023-05-25T04:32:06;96611.94;;;14.38;71.67
31357;BME280;60001;48.404;11.738;2023-05-25T04:33:38;96617.53;;;14.36;71.84
31357;BME280;60001;48.404;11.738;2023-05-25T04:35:10;96614.34;;;14.29;71.78
31357;BME280;60001;48.404;11.738;2023-05-25T04:36:43;96612.75;;;14.23;72.20
31357;BME280;60001;48.404;11.738;2023-05-25T04:38:17;96625.78;;;14.40;71.31
31357;BME280;60001;48.404;11.738;2023-05-25T04:39:49;96620.69;;;14.38;71.04
31357;BME280;60001;48.404;11.738;2023-05-25T04:41:21;96625.78;;;14.50;70.66
31357;BME280;60001;48.404;11.738;2023-05-25T04:42:56;96620.44;;;14.30;71.57
31357;BME280;60001;48.404;11.738;2023-05-25T04:44:28;96620.19;;;14.36;70.88
31357;BME280;60001;48.404;11.738;2023-05-25T04:46:00;96627.91;;;14.27;70.79
31357;BME280;60001;48.404;11.738;2023-05-25T04:47:33;96626.56;;;14.30;70.86
31357;BME280;60001;48.404;11.738;2023-05-25T04:49:06;96628.16;;;14.41;70.19
31357;BME280;60001;48.404;11.738;2023-05-25T04:50:39;96589.13;;;14.26;69.46
31357;BME280;60001;48.404;11.738;2023-05-25T04:52:11;96623.88;;;14.45;68.92
31357;BME280;60001;48.404;11.738;2023-05-25T04:53:43;96625.25;;;14.33;69.53
31357;BME280;60001;48.404;11.738;2023-05-25T04:55:15;96622.56;;;14.38;69.61
31357;BME280;60001;48.404;11.738;2023-05-25T04:56:46;96619.91;;;14.43;68.79
31357;BME280;60001;48.404;11.738;2023-05-25T04:58:20;96621.22;;;14.45;68.46
31357;BME280;60001;48.404;11.738;2023-05-25T04:59:52;96621.53;;;14.49;68.03
31357;BME280;60001;48.404;11.738;2023-05-25T05:01:24;96621.53;;;14.34;69.01
31357;BME280;60001;48.404;11.738;2023-05-25T05:02:57;96616.47;;;14.22;68.85
31357;BME280;60001;48.404;11.738;2023-05-25T05:04:29;96628.16;;;14.41;68.80
31357;BME280;60001;48.404;11.738;2023-05-25T05:06:01;96625.22;;;14.38;68.60
31357;BME280;60001;48.404;11.738;2023-05-25T05:07:33;96632.94;;;14.55;67.85
31357;BME280;60001;48.404;11.738;2023-05-25T05:09:05;96627.59;;;14.44;67.94
31357;BME280;60001;48.404;11.738;2023-05-25T05:10:37;96623.13;;;14.50;67.82
31357;BME280;60001;48.404;11.738;2023-05-25T05:12:09;96631.09;;;14.50;66.94
31357;BME280;60001;48.404;11.738;2023-05-25T05:13:42;96631.88;;;14.56;66.91
31357;BME280;60001;48.404;11.738;2023-05-25T05:15:14;96628.94;;;14.62;66.98
31357;BME280;60001;48.404;11.738;2023-05-25T05:16:46;96640.91;;;14.60;67.00
31357;BME280;60001;48.404;11.738;2023-05-25T05:18:18;96640.66;;;14.56;66.73
31357;BME280;60001;48.404;11.738;2023-05-25T05:19:49;96642.78;;;14.54;66.57
31357;BME280;60001;48.404;11.738;2023-05-25T05:21:21;96643.06;;;14.47;66.96
31357;BME280;60001;48.404;11.738;2023-05-25T05:22:53;96645.16;;;14.56;66.92
31357;BME280;60001;48.404;11.738;2023-05-25T05:24:24;96643.06;;;14.47;66.47
31357;BME280;60001;48.404;11.738;2023-05-25T05:25:56;96647.28;;;14.43;66.54
31357;BME280;60001;48.404;11.738;2023-05-25T05:27:28;96650.47;;;14.40;66.85
31357;BME280;60001;48.404;11.738;2023-05-25T05:29:01;96646.47;;;14.22;66.83
31357;BME280;60001;48.404;11.738;2023-05-25T05:30:34;96642.75;;;14.44;66.58
31357;BME280;60001;48.404;11.738;2023-05-25T05:32:05;96641.19;;;14.48;65.83
31357;BME280;60001;48.404;11.738;2023-05-25T05:33:36;96646.78;;;14.46;65.58
31357;BME280;60001;48.404;11.738;2023-05-25T05:35:08;96653.94;;;14.41;65.45
31357;BME280;60001;48.404;11.738;2023-05-25T05:36:40;96653.13;;;14.50;65.46
31357;BME280;60001;48.404;11.738;2023-05-25T05:38:12;96652.06;;;14.31;65.84
31357;BME280;60001;48.404;11.738;2023-05-25T05:39:43;96649.66;;;14.45;65.56
31357;BME280;60001;48.404;11.738;2023-05-25T05:41:15;96650.72;;;14.44;66.11
31357;BME280;60001;48.404;11.738;2023-05-25T05:42:46;96652.06;;;14.51;65.44
31357;BME280;60001;48.404;11.738;2023-05-25T05:44:19;96657.91;;;14.69;64.15
31357;BME280;60001;48.404;11.738;2023-05-25T05:45:51;96656.28;;;14.73;64.58
31357;BME280;60001;48.404;11.738;2023-05-25T05:47:23;96648.06;;;14.44;64.63
31357;BME280;60001;48.404;11.738;2023-05-25T05:48:55;96652.06;;;14.62;64.31
31357;BME280;60001;48.404;11.738;2023-05-25T05:50:27;96648.63;;;14.61;64.44
31357;BME280;60001;48.404;11.738;2023-05-25T05:51:59;96653.38;;;14.59;64.85
31357;BME280;60001;48.404;11.738;2023-05-25T05:53:30;96655.72;;;14.81;63.49
31357;BME280;60001;48.404;11.738;2023-05-25T05:55:04;96653.63;;;14.78;63.09
31357;BME280;60001;48.404;11.738;2023-05-25T05:56:37;96659.22;;;14.82;63.18
31357;BME280;60001;48.404;11.738;2023-05-25T05:58:08;96657.34;;;14.72;63.46
31357;BME280;60001;48.404;11.738;2023-05-25T05:59:42;96662.19;;;14.55;63.59
31357;BME280;60001;48.404;11.738;2023-05-25T06:01:14;96662.66;;;14.77;63.51
31357;BME280;60001;48.404;11.738;2023-05-25T06:02:46;96663.22;;;14.69;63.65
31357;BME280;60001;48.404;11.738;2023-05-25T06:04:18;96657.06;;;14.89;62.25
31357;BME280;60001;48.404;11.738;2023-05-25T06:05:49;96665.00;;;14.94;62.78
31357;BME280;60001;48.404;11.738;2023-05-25T06:07:21;96662.91;;;14.80;63.08
31357;BME280;60001;48.404;11.738;2023-05-25T06:08:53;96669.56;;;14.88;62.22
31357;BME280;60001;48.404;11.738;2023-05-25T06:10:25;96671.41;;;14.93;61.76
31357;BME280;60001;48.404;11.738;2023-05-25T06:11:57;96666.31;;;15.01;61.44
31357;BME280;60001;48.404;11.738;2023-05-25T06:13:28;96649.38;;;14.82;61.77
31357;BME280;60001;48.404;11.738;2023-05-25T06:15:01;96668.97;;;15.01;62.17
31357;BME280;60001;48.404;11.738;2023-05-25T06:16:34;96670.84;;;15.01;61.93
31357;BME280;60001;48.404;11.738;2023-05-25T06:18:05;96674.06;;;15.03;61.35
31357;BME280;60001;48.404;11.738;2023-05-25T06:19:38;96668.44;;;15.04;60.86
31357;BME280;60001;48.404;11.738;2023-05-25T06:21:10;96677.22;;;15.10;60.86
31357;BME280;60001;48.404;11.738;2023-05-25T06:22:41;96684.41;;;14.94;60.46
31357;BME280;60001;48.404;11.738;2023-05-25T06:24:13;96684.13;;;15.11;60.01
31357;BME280;60001;48.404;11.738;2023-05-25T06:25:45;96685.16;;;15.15;60.10
31357;BME280;60001;48.404;11.738;2023-05-25T06:27:17;96681.47;;;15.16;60.42
31357;BME280;60001;48.404;11.738;2023-05-25T06:28:49;96683.63;;;15.09;60.11
31357;BME280;60001;48.404;11.738;2023-05-25T06:30:23;96676.66;;;15.13;60.19
31357;BME280;60001;48.404;11.738;2023-05-25T06:31:55;96680.13;;;15.14;59.90
31357;BME280;60001;48.404;11.738;2023-05-25T06:33:27;96677.69;;;15.27;59.80
31357;BME280;60001;48.404;11.738;2023-05-25T06:34:58;96683.28;;;15.26;59.45
31357;BME280;60001;48.404;11.738;2023-05-25T06:36:31;96680.22;;;14.88;61.11
31357;BME280;60001;48.404;11.738;2023-05-25T06:38:03;96691.53;;;15.24;60.12
31357;BME280;60001;48.404;11.738;2023-05-25T06:39:35;96694.44;;;15.23;60.08
31357;BME280;60001;48.404;11.738;2023-05-25T06:41:07;96700.03;;;15.26;60.07
31357;BME280;60001;48.404;11.738;2023-05-25T06:42:42;96697.66;;;15.30;60.71
31357;BME280;60001;48.404;11.738;2023-05-25T06:44:14;96697.88;;;15.28;60.50
31357;BME280;60001;48.404;11.738;2023-05-25T06:45:47;96691.25;;;15.31;60.47
31357;BME280;60001;48.404;11.738;2023-05-25T06:47:19;96690.16;;;15.37;60.18
31357;BME280;60001;48.404;11.738;2023-05-25T06:48:50;96693.63;;;15.27;60.30
31357;BME280;60001;48.404;11.738;2023-05-25T06:50:22;96691.25;;;15.26;59.95
31357;BME280;60001;48.404;11.738;2023-05-25T06:51:54;96692.34;;;15.25;60.48
31357;BME280;60001;48.404;11.738;2023-05-25T06:53:26;96694.41;;;15.38;60.80
31357;BME280;60001;48.404;11.738;2023-05-25T06:54:58;96692.78;;;15.47;59.95
31357;BME280;60001;48.404;11.738;2023-05-25T06:56:30;96695.44;;;15.42;60.09
31357;BME280;60001;48.404;11.738;2023-05-25T06:58:02;96683.19;;;15.46;60.13
31357;BME280;60001;48.404;11.738;2023-05-25T06:59:33;96679.47;;;15.47;60.34
31357;BME280;60001;48.404;11.738;2023-05-25T07:01:07;96699.69;;;15.48;60.40
31357;BME280;60001;48.404;11.738;2023-05-25T07:02:38;96700.75;;;15.52;59.77
31357;BME280;60001;48.404;11.738;2023-05-25T07:04:10;96696.53;;;15.41;60.04
31357;BME280;60001;48.404;11.738;2023-05-25T07:05:42;96695.94;;;15.54;59.99
31357;BME280;60001;48.404;11.738;2023-05-25T07:07:14;96697.38;;;15.31;61.12
31357;BME280;60001;48.404;11.738;2023-05-25T07:08:46;96696.72;;;15.55;61.13
31357;BME280;60001;48.404;11.738;2023-05-25T07:10:18;96697.31;;;15.47;61.29
31357;BME280;60001;48.404;11.738;2023-05-25T07:11:49;96696.72;;;15.60;61.39
31357;BME280;60001;48.404;11.738;2023-05-25T07:13:21;96693.28;;;15.65;61.08
31357;BME280;60001;48.404;11.738;2023-05-25T07:14:53;96694.84;;;15.60;61.33
31357;BME280;60001;48.404;11.738;2023-05-25T07:16:26;96696.72;;;15.65;61.87
31357;BME280;60001;48.404;11.738;2023-05-25T07:17:58;96700.94;;;15.71;61.99
31357;BME280;60001;48.404;11.738;2023-05-25T07:19:30;96700.97;;;15.66;62.16
31357;BME280;60001;48.404;11.738;2023-05-25T07:21:02;96704.72;;;15.55;62.23
31357;BME280;60001;48.404;11.738;2023-05-25T07:22:33;96705.22;;;15.72;61.92
31357;BME280;60001;48.404;11.738;2023-05-25T07:24:06;96699.63;;;15.63;62.98
31357;BME280;60001;48.404;11.738;2023-05-25T07:25:39;96704.72;;;15.55;63.14
31357;BME280;60001;48.404;11.738;2023-05-25T07:27:11;96702.50;;;15.77;62.91
31357;BME280;60001;48.404;11.738;2023-05-25T07:28:44;96698.16;;;15.92;62.66
31357;BME280;60001;48.404;11.738;2023-05-25T07:30:16;96699.28;;;15.85;62.24
31357;BME280;60001;48.404;11.738;2023-05-25T07:31:49;96703.28;;;15.78;62.41
31357;BME280;60001;48.404;11.738;2023-05-25T07:33:20;96704.31;;;15.87;62.21
31357;BME280;60001;48.404;11.738;2023-05-25T07:34:53;96706.81;;;15.68;63.22
31357;BME280;60001;48.404;11.738;2023-05-25T07:36:25;96688.38;;;15.82;62.67
31357;BME280;60001;48.404;11.738;2023-05-25T07:37:57;96703.72;;;16.00;62.14
31357;BME280;60001;48.404;11.738;2023-05-25T07:39:29;96704.53;;;15.96;62.29
31357;BME280;60001;48.404;11.738;2023-05-25T07:41:01;96710.88;;;16.05;62.29
31357;BME280;60001;48.404;11.738;2023-05-25T07:42:33;96715.88;;;16.11;62.84
31357;BME280;60001;48.404;11.738;2023-05-25T07:44:05;96712.13;;;16.12;62.28
31357;BME280;60001;48.404;11.738;2023-05-25T07:45:36;96710.06;;;16.04;61.93
31357;BME280;60001;48.404;11.738;2023-05-25T07:47:10;96705.88;;;15.93;63.00
31357;BME280;60001;48.404;11.738;2023-05-25T07:48:41;96724.72;;;16.07;62.53
31357;BME280;60001;48.404;11.738;2023-05-25T07:50:14;96721.03;;;15.98;61.81
31357;BME280;60001;48.404;11.738;2023-05-25T07:51:46;96711.25;;;15.83;62.59
31357;BME280;60001;48.404;11.738;2023-05-25T07:53:17;96719.16;;;15.98;62.82
31357;BME280;60001;48.404;11.738;2023-05-25T07:54:49;96718.06;;;16.04;62.50
31357;BME280;60001;48.404;11.738;2023-05-25T07:56:21;96711.44;;;15.97;63.14
31357;BME280;60001;48.404;11.738;2023-05-25T07:57:53;96716.91;;;16.21;61.85
31357;BME280;60001;48.404;11.738;2023-05-25T07:59:24;96724.94;;;16.15;62.65
31357;BME280;60001;48.404;11.738;2023-05-25T08:00:56;96723.03;;;16.21;62.35
31357;BME280;60001;48.404;11.738;2023-05-25T08:02:29;96733.38;;;16.28;62.68
31357;BME280;60001;48.404;11.738;2023-05-25T08:04:01;96729.00;;;16.03;63.68